createdAt,value
2019-03-02T00:03:31.767Z,2.17
2019-03-02T00:07:37.253Z,6.17
2019-03-02T00:11:42.143Z,1.87
2019-03-02T00:15:47.078Z,2.43
2019-03-02T00:19:52.303Z,3.20
2019-03-02T00:23:57.456Z,3.23
2019-03-02T00:28:02.353Z,5.40
2019-03-02T00:32:09.599Z,1.70
2019-03-02T00:36:16.052Z,2.20
2019-03-02T00:40:20.469Z,2.43
2019-03-02T00:44:25.347Z,5.60
2019-03-02T00:48:30.318Z,8.17
2019-03-02T00:52:35.266Z,7.00
2019-03-02T00:56:42.839Z,10.97
2019-03-02T01:00:49.898Z,3.20
2019-03-02T01:04:53.432Z,3.73
2019-03-02T01:08:58.415Z,3.63
2019-03-02T01:13:03.327Z,4.63
2019-03-02T01:17:08.244Z,5.90
2019-03-02T01:21:13.155Z,5.60
2019-03-02T01:25:18.235Z,3.10
2019-03-02T01:29:23.082Z,3.27
2019-03-02T01:33:29.357Z,7.00
2019-03-02T01:37:34.373Z,4.10
2019-03-02T01:41:39.310Z,5.03
2019-03-02T01:45:44.175Z,3.43
2019-03-02T01:49:49.091Z,7.90
2019-03-02T01:53:54.074Z,7.03
2019-03-02T01:58:00.958Z,2.50
2019-03-02T02:02:06.798Z,3.80
2019-03-02T02:06:11.846Z,2.80
2019-03-02T02:10:16.962Z,4.23
2019-03-02T02:14:21.862Z,3.13
2019-03-02T02:18:27.699Z,2.50
2019-03-02T02:22:34.704Z,5.00
2019-03-02T02:26:39.669Z,1.87
2019-03-02T02:30:44.625Z,3.23
2019-03-02T02:34:49.638Z,2.87
2019-03-02T02:38:55.766Z,6.03
2019-03-02T02:43:00.845Z,7.93
2019-03-02T02:47:07.051Z,6.97
2019-03-02T02:51:12.551Z,9.20
2019-03-02T02:55:17.572Z,5.30
2019-03-02T02:59:22.470Z,7.00
2019-03-02T03:03:27.379Z,2.30
2019-03-02T03:07:32.287Z,5.00
2019-03-02T03:11:43.747Z,2.27
2019-03-02T03:15:46.377Z,3.90
2019-03-02T03:19:51.315Z,3.00
2019-03-02T03:24:03.044Z,6.53
2019-03-02T03:28:02.956Z,6.43
2019-03-02T03:32:11.650Z,2.63
2019-03-02T03:36:14.402Z,3.53
2019-03-02T03:40:20.073Z,3.50
2019-03-02T03:44:27.682Z,3.00
2019-03-02T03:48:32.508Z,4.70
2019-03-02T03:52:37.412Z,2.10
2019-03-02T03:56:48.207Z,3.30
2019-03-02T04:00:56.300Z,4.30
2019-03-02T04:05:06.934Z,2.47
2019-03-02T04:09:10.218Z,2.80
2019-03-02T04:13:15.306Z,1.93
2019-03-02T04:17:20.277Z,5.07
2019-03-02T04:21:28.394Z,2.87
2019-03-02T04:25:33.624Z,3.37
2019-03-02T04:29:38.542Z,1.67
2019-03-02T04:33:44.635Z,2.17
2019-03-02T04:37:49.631Z,3.37
2019-03-02T04:41:54.544Z,2.67
2019-03-02T04:45:59.558Z,4.63
2019-03-02T04:50:04.753Z,8.70
2019-03-02T04:54:09.798Z,2.50
2019-03-02T04:58:14.700Z,1.47
2019-03-02T05:02:20.684Z,1.60
2019-03-02T05:06:25.616Z,1.63
2019-03-02T05:10:30.507Z,2.47
2019-03-02T05:14:36.709Z,2.87
2019-03-02T05:18:42.077Z,3.60
2019-03-02T05:22:47.014Z,2.57
2019-03-02T05:26:53.464Z,1.40
2019-03-02T05:30:58.543Z,4.67
2019-03-02T05:35:03.447Z,3.50
2019-03-02T05:39:08.363Z,1.13
2019-03-02T05:43:13.658Z,1.40
2019-03-02T05:47:19.331Z,1.33
2019-03-02T05:51:24.301Z,1.70
2019-03-02T05:55:29.177Z,2.53
2019-03-02T05:59:34.316Z,3.07
2019-03-02T06:03:42.608Z,2.00
2019-03-02T06:07:45.834Z,2.10
2019-03-02T06:11:50.847Z,2.73
2019-03-02T06:15:55.766Z,2.60
2019-03-02T06:20:00.668Z,1.93
2019-03-02T06:24:06.597Z,1.70
2019-03-02T06:28:11.589Z,3.83
2019-03-02T06:32:16.468Z,1.40
2019-03-02T06:36:21.355Z,2.60
2019-03-02T06:40:26.563Z,2.87
2019-03-02T06:44:34.154Z,3.80
2019-03-02T06:48:41.488Z,2.30
2019-03-02T06:52:44.747Z,2.87
2019-03-02T06:56:57.574Z,4.80
2019-03-02T07:00:56.972Z,2.23
2019-03-02T07:05:02.207Z,2.50
2019-03-02T07:09:09.618Z,3.40
2019-03-02T07:13:17.820Z,4.13
2019-03-02T07:17:41.223Z,4.37
2019-03-02T07:21:46.627Z,2.53
2019-03-02T07:25:52.182Z,3.50
2019-03-02T07:29:57.435Z,3.83
2019-03-02T07:34:04.743Z,3.57
2019-03-02T07:38:09.814Z,3.92
2019-03-02T07:42:14.785Z,5.50
2019-03-02T07:46:19.766Z,2.53
2019-03-02T07:50:25.901Z,3.27
2019-03-02T07:54:31.235Z,2.93
2019-03-02T07:58:36.536Z,3.30
2019-03-02T08:02:41.500Z,3.30
2019-03-02T08:06:46.635Z,6.03
2019-03-02T08:10:51.861Z,3.50
2019-03-02T08:14:57.129Z,2.80
2019-03-02T08:19:03.964Z,4.67
2019-03-02T08:23:09.245Z,3.43
2019-03-02T08:27:14.331Z,3.53
2019-03-02T08:31:19.189Z,4.30
2019-03-02T08:35:24.362Z,4.03
2019-03-02T08:39:29.315Z,3.30
2019-03-02T08:43:34.563Z,4.37
2019-03-02T08:47:39.853Z,5.70
2019-03-02T08:51:44.866Z,4.43
2019-03-02T08:55:51.120Z,6.27
2019-03-02T08:59:56.399Z,5.53
2019-03-02T09:04:03.194Z,5.13
2019-03-02T09:08:08.024Z,4.10
2019-03-02T09:12:12.907Z,3.33
2019-03-02T09:16:17.810Z,4.43
2019-03-02T09:20:22.941Z,3.40
2019-03-02T09:24:28.709Z,2.93
2019-03-02T09:28:36.596Z,4.60
2019-03-02T09:32:42.359Z,4.90
2019-03-02T09:36:48.136Z,5.53
2019-03-02T09:40:53.877Z,3.17
2019-03-02T09:44:59.731Z,3.90
2019-03-02T09:49:07.502Z,3.83
2019-03-02T09:53:12.652Z,2.63
2019-03-02T09:57:17.614Z,4.17
2019-03-02T10:01:22.538Z,4.37
2019-03-02T10:05:27.486Z,3.47
2019-03-02T10:09:32.393Z,5.00
2019-03-02T10:13:37.446Z,4.90
2019-03-02T10:17:42.424Z,3.30
2019-03-02T10:21:48.543Z,5.57
2019-03-02T10:25:54.803Z,4.43
2019-03-02T10:29:59.701Z,4.67
2019-03-02T10:34:06.353Z,5.23
2019-03-02T10:38:14.841Z,5.80
2019-03-02T10:42:17.902Z,4.63
2019-03-02T10:46:22.989Z,4.30
2019-03-02T10:50:28.338Z,5.40
2019-03-02T10:54:34.906Z,4.13
2019-03-02T10:58:39.948Z,4.97
2019-03-02T11:02:45.014Z,6.00
2019-03-02T11:06:59.541Z,4.00
2019-03-02T11:11:25.762Z,4.60
2019-03-02T11:15:54.589Z,4.17
2019-03-02T11:20:25.212Z,5.20
2019-03-02T11:24:47.011Z,5.27
2019-03-02T11:29:10.755Z,6.60
2019-03-02T11:33:23.708Z,5.00
2019-03-02T11:37:45.010Z,4.80
2019-03-02T11:42:01.290Z,7.70
2019-03-02T11:46:23.826Z,4.73
2019-03-02T11:50:42.386Z,3.47
2019-03-02T11:55:06.339Z,5.37
2019-03-02T11:59:28.880Z,3.90
2019-03-02T12:03:52.564Z,4.70
2019-03-02T12:08:31.704Z,5.30
2019-03-02T12:13:11.249Z,5.43
2019-03-02T12:17:33.013Z,3.73
2019-03-02T12:22:03.219Z,4.13
2019-03-02T12:26:26.595Z,3.90
2019-03-02T12:30:48.613Z,5.10
2019-03-02T12:35:15.082Z,5.08
2019-03-02T12:39:38.888Z,6.57
2019-03-02T12:44:03.982Z,7.67
2019-03-02T12:48:31.253Z,4.63
2019-03-02T12:53:07.687Z,4.90
2019-03-02T12:57:29.517Z,5.00
2019-03-02T13:01:56.489Z,4.90
2019-03-02T13:06:38.597Z,7.20
2019-03-02T13:11:02.382Z,6.70
2019-03-02T13:15:45.484Z,7.80
2019-03-02T13:20:04.042Z,8.50
2019-03-02T13:24:34.579Z,5.27
2019-03-02T13:29:01.510Z,7.73
2019-03-02T13:33:21.781Z,7.00
2019-03-02T13:37:48.551Z,5.00
2019-03-02T13:42:03.229Z,9.00
2019-03-02T13:46:31.136Z,6.63
2019-03-02T13:50:54.756Z,8.27
2019-03-02T13:55:14.424Z,5.60
2019-03-02T13:59:35.762Z,6.63
2019-03-02T14:03:52.330Z,8.90
2019-03-02T14:08:19.092Z,7.40
2019-03-02T14:12:42.866Z,5.27
2019-03-02T14:17:11.807Z,9.07
2019-03-02T14:21:26.598Z,9.23
2019-03-02T14:25:50.450Z,6.87
2019-03-02T14:30:26.907Z,7.50
2019-03-02T14:34:50.821Z,8.40
2019-03-02T14:39:24.261Z,16.37
2019-03-02T14:44:03.612Z,9.10
2019-03-02T14:48:48.909Z,9.97
2019-03-02T14:53:18.256Z,8.67
2019-03-02T14:57:45.043Z,7.67
2019-03-02T15:02:07.378Z,8.73
2019-03-02T15:06:40.594Z,9.67
2019-03-02T15:11:04.511Z,12.50
2019-03-02T15:15:43.603Z,7.03
2019-03-02T15:19:57.776Z,8.53
2019-03-02T15:24:27.948Z,9.93
2019-03-02T15:28:48.596Z,12.07
2019-03-02T15:33:02.186Z,9.03
2019-03-02T15:37:24.220Z,12.80
2019-03-02T15:41:50.248Z,12.50
2019-03-02T15:46:18.251Z,11.90
2019-03-02T15:50:42.234Z,10.23
2019-03-02T15:55:09.902Z,8.57
2019-03-02T15:59:50.239Z,12.40
2019-03-02T16:04:11.704Z,8.70
2019-03-02T16:08:29.274Z,8.60
2019-03-02T16:12:51.117Z,11.27
2019-03-02T16:17:22.083Z,11.47
2019-03-02T16:21:57.281Z,9.20
2019-03-02T16:26:20.522Z,7.23
2019-03-02T16:30:44.067Z,12.67
2019-03-02T16:35:09.165Z,12.00
2019-03-02T16:39:29.193Z,12.40
2019-03-02T16:43:39.948Z,13.77
2019-03-02T16:48:12.983Z,15.17
2019-03-02T16:52:26.969Z,20.73
2019-03-02T16:56:53.887Z,13.50
2019-03-02T17:01:15.740Z,14.40
2019-03-02T17:05:28.333Z,23.50
2019-03-02T17:10:05.930Z,18.63
2019-03-02T17:14:29.701Z,16.13
2019-03-02T17:19:04.137Z,15.93
2019-03-02T17:23:27.311Z,25.77
2019-03-02T17:27:58.200Z,19.20
2019-03-02T17:32:25.025Z,18.90
2019-03-02T17:36:55.358Z,14.80
2019-03-02T17:41:23.518Z,15.30
2019-03-02T17:45:54.834Z,17.43
2019-03-02T17:50:11.794Z,18.13
2019-03-02T17:54:42.216Z,20.90
2019-03-02T17:59:11.487Z,16.80
2019-03-02T18:03:35.552Z,12.10
2019-03-02T18:08:14.644Z,18.83
2019-03-02T18:12:41.653Z,23.13
2019-03-02T18:17:11.589Z,22.40
2019-03-02T18:21:16.519Z,19.13
2019-03-02T18:25:21.509Z,17.90
2019-03-02T18:29:29.257Z,17.70
2019-03-02T18:33:47.727Z,23.30
2019-03-02T18:37:53.164Z,20.90
2019-03-02T18:41:58.742Z,19.57
2019-03-02T18:46:03.695Z,23.60
2019-03-02T18:50:20.073Z,22.23
2019-03-02T18:54:27.225Z,17.80
2019-03-02T18:58:32.661Z,19.23
2019-03-02T19:02:37.983Z,20.97
2019-03-02T19:06:42.963Z,22.30
2019-03-02T19:10:47.949Z,28.97
2019-03-02T19:14:57.804Z,19.90
2019-03-02T19:19:03.637Z,22.13
2019-03-02T19:23:09.580Z,18.17
2019-03-02T19:27:14.496Z,18.00
2019-03-02T19:31:21.304Z,19.13
2019-03-02T19:35:26.565Z,19.30
2019-03-02T19:39:31.672Z,21.47
2019-03-02T19:43:36.832Z,19.07
2019-03-02T19:47:41.955Z,20.20
2019-03-02T19:51:47.711Z,25.70
2019-03-02T19:55:52.738Z,22.70
2019-03-02T19:59:57.702Z,19.50
2019-03-02T20:04:07.171Z,21.77
2019-03-02T20:08:12.109Z,17.90
2019-03-02T20:12:17.678Z,26.13
2019-03-02T20:16:23.618Z,19.40
2019-03-02T20:20:28.636Z,21.43
2019-03-02T20:24:33.586Z,20.43
2019-03-02T20:28:41.779Z,21.40
2019-03-02T20:32:46.877Z,15.50
2019-03-02T20:36:51.790Z,15.17
2019-03-02T20:40:56.708Z,24.00
2019-03-02T20:45:01.726Z,18.57
2019-03-02T20:49:06.642Z,17.80
2019-03-02T20:53:12.554Z,16.53
2019-03-02T20:57:17.451Z,18.60
2019-03-02T21:01:24.182Z,19.50
2019-03-02T21:05:29.792Z,22.83
2019-03-02T21:09:35.015Z,15.00
2019-03-02T21:13:40.207Z,16.83
2019-03-02T21:17:45.117Z,21.20
2019-03-02T21:21:50.408Z,19.47
2019-03-02T21:25:55.663Z,16.87
2019-03-02T21:30:00.608Z,19.00
2019-03-02T21:34:05.747Z,14.20
2019-03-02T21:38:10.790Z,19.10
2019-03-02T21:42:15.711Z,19.73
2019-03-02T21:46:20.647Z,13.87
2019-03-02T21:50:28.512Z,16.43
2019-03-02T21:54:34.197Z,16.43
2019-03-02T21:58:39.852Z,15.50
2019-03-02T22:02:44.982Z,21.80
2019-03-02T22:06:52.470Z,14.93
2019-03-02T22:11:02.347Z,14.50
2019-03-02T22:15:10.468Z,19.13
2019-03-02T22:19:15.936Z,20.23
2019-03-02T22:23:20.882Z,14.00
2019-03-02T22:27:25.784Z,23.10
2019-03-02T22:31:30.708Z,17.77
2019-03-02T22:35:35.578Z,13.10
2019-03-02T22:39:40.567Z,19.03
2019-03-02T22:43:45.505Z,19.33
2019-03-02T22:47:51.390Z,14.23
2019-03-02T22:51:56.353Z,21.03
2019-03-02T22:56:01.251Z,14.83
2019-03-02T23:00:51.202Z,25.47
2019-03-02T23:04:56.075Z,16.93
2019-03-02T23:09:00.957Z,21.40
2019-03-02T23:13:05.893Z,13.77
2019-03-02T23:17:10.915Z,16.70
2019-03-02T23:21:16.507Z,25.73
2019-03-02T23:25:21.430Z,17.33
2019-03-02T23:29:26.386Z,20.43
2019-03-02T23:33:31.547Z,15.13
2019-03-02T23:37:36.450Z,16.70
2019-03-02T23:41:41.365Z,21.23
2019-03-02T23:45:47.367Z,18.17
2019-03-02T23:49:52.246Z,21.30
2019-03-02T23:53:57.148Z,21.30
2019-03-02T23:58:02.052Z,20.90
